Time;durP1;ratioP1;P1;durP2;ratioP2;P2;SDS_P1;SDS_P2;PMS_P1;PMS_P2;Temp;Humidity;BMP_temperature;BMP_pressure;BME280_temperature;BME280_humidity;BME280_pressure;Samples;Min_cycle;Max_cycle;Signal;HPM_P1;HPM_P2
2023/08/09 00:01:55;;;;;;;0.40;0.40;;;21.80;61.20;;;22.15;45.60;94873.94;5054506;28;20201;-39
2023/08/09 00:04:22;;;;;;;0.40;0.40;;;21.70;61.10;;;22.15;45.78;94880.09;5054001;28;20228;-39
2023/08/09 00:06:49;;;;;;;0.43;0.43;;;21.70;61.10;;;22.15;45.54;94879.28;5054925;28;20609;-39
2023/08/09 00:09:16;;;;;;;0.40;0.40;;;21.70;61.30;;;22.14;45.66;94875.84;5054832;28;20230;-39
2023/08/09 00:11:43;;;;;;;0.40;0.40;;;21.70;61.30;;;22.13;45.78;94874.22;5054550;28;20720;-39
2023/08/09 00:14:10;;;;;;;0.43;0.43;;;21.80;61.30;;;22.13;45.92;94876.06;5054383;28;20682;-39
2023/08/09 00:16:37;;;;;;;0.40;0.40;;;21.70;61.30;;;22.12;45.99;94877.13;5054666;28;20201;-39
2023/08/09 00:19:05;;;;;;;0.40;0.40;;;21.70;61.20;;;22.11;45.79;94881.69;5057906;28;20224;-39
2023/08/09 00:21:32;;;;;;;0.43;0.43;;;21.70;61.10;;;22.10;45.44;94877.41;5058448;28;20200;-39
2023/08/09 00:24:00;;;;;;;0.40;0.40;;;21.70;62.20;;;22.10;45.83;94885.41;5058158;28;20212;-39
2023/08/09 00:26:27;;;;;;;0.40;0.40;;;21.70;61.30;;;22.10;45.87;94882.75;5058869;28;20632;-39
2023/08/09 00:28:54;;;;;;;0.40;0.40;;;21.70;61.30;;;22.10;46.08;94882.75;5057213;28;20212;-39
2023/08/09 00:31:21;;;;;;;0.40;0.40;;;21.70;61.40;;;22.11;45.74;94889.69;5057304;28;20632;-39
2023/08/09 00:33:49;;;;;;;0.40;0.40;;;21.70;61.30;;;22.11;46.07;94886.25;5058556;28;20322;-39
2023/08/09 00:36:16;;;;;;;0.40;0.40;;;21.70;61.40;;;22.12;45.97;94890.50;5058170;28;20288;-39
2023/08/09 00:38:43;;;;;;;0.43;0.43;;;21.70;61.30;;;22.11;45.77;94884.38;5058098;28;20263;-39
2023/08/09 00:41:10;;;;;;;0.50;0.50;;;21.70;61.40;;;22.10;45.70;94885.41;5058661;28;20560;-39
2023/08/09 00:43:37;;;;;;;0.40;0.40;;;21.70;62.20;;;22.10;46.22;94893.44;5057695;28;20674;-39
2023/08/09 00:46:05;;;;;;;0.40;0.40;;;21.70;61.40;;;22.10;45.88;94884.63;5058555;28;20648;-39
2023/08/09 00:48:32;;;;;;;0.43;0.43;;;21.70;61.40;;;22.11;46.06;94886.25;5057933;28;20212;-39
2023/08/09 00:51:00;;;;;;;0.50;0.50;;;21.70;61.40;;;22.10;45.89;94898.00;5058152;28;20271;-39
2023/08/09 00:53:27;;;;;;;0.45;0.45;;;21.70;61.40;;;22.11;45.94;94886.25;5073232;28;20301;-39
2023/08/09 00:55:54;;;;;;;0.40;0.40;;;21.70;61.50;;;22.11;46.13;94889.69;5040350;28;20219;-39
2023/08/09 00:58:21;;;;;;;0.40;0.40;;;21.70;61.50;;;22.11;46.16;94884.38;5040402;28;20210;-39
2023/08/09 01:00:48;;;;;;;0.40;0.40;;;21.70;61.40;;;22.11;45.92;94886.25;5057718;28;20288;-39
2023/08/09 01:03:16;;;;;;;0.40;0.40;;;21.70;61.50;;;22.11;45.88;94880.91;5057594;28;20203;-39
2023/08/09 01:06:17;;;;;;;0.40;0.40;;;21.70;61.50;;;22.09;46.24;94891.81;5057645;28;20229;-39
2023/08/09 01:08:49;;;;;;;0.47;0.47;;;21.70;61.50;;;22.08;45.81;94892.88;5057853;28;20191;-39
2023/08/09 01:11:53;;;;;;;0.45;0.45;;;21.70;61.30;;;22.04;45.84;94895.28;5058094;28;20207;-39
2023/08/09 01:14:28;;;;;;;0.40;0.40;;;21.70;61.40;;;22.04;45.86;94897.97;5044354;28;20546;-39
2023/08/09 01:16:57;;;;;;;0.40;0.40;;;21.70;61.40;;;22.04;45.97;94897.16;5024519;28;20223;-39
2023/08/09 01:19:38;;;;;;;0.40;0.40;;;21.70;61.40;;;22.05;46.00;94902.25;5039929;28;20207;-39
2023/08/09 01:22:20;;;;;;;0.40;0.40;;;21.70;61.40;;;22.03;45.92;94899.06;5057575;28;20216;-39
2023/08/09 01:24:49;;;;;;;0.50;0.50;;;21.70;61.50;;;22.03;46.00;94901.72;5057124;28;20240;-39
2023/08/09 01:27:16;;;;;;;0.40;0.40;;;21.70;61.50;;;22.02;45.81;94893.94;5056272;28;20224;-39
2023/08/09 01:29:44;;;;;;;0.40;0.40;;;21.70;61.50;;;22.03;46.34;94884.88;5055543;28;20201;-39
2023/08/09 01:32:11;;;;;;;0.40;0.40;;;21.70;61.50;;;22.02;46.44;94889.44;5056201;28;20289;-39
2023/08/09 01:34:39;;;;;;;0.40;0.40;;;21.70;61.60;;;21.98;46.46;94888.34;5056913;28;20201;-39
2023/08/09 01:37:15;;;;;;;0.40;0.40;;;21.70;61.60;;;22.02;46.23;94897.44;5056193;28;20256;-39
2023/08/09 01:39:45;;;;;;;0.40;0.40;;;21.70;61.60;;;22.02;46.48;94892.09;5056068;28;20201;-39
2023/08/09 01:42:13;;;;;;;0.45;0.45;;;21.70;61.70;;;22.03;46.17;94896.38;5057448;28;20238;-39
2023/08/09 01:44:41;;;;;;;0.40;0.40;;;21.70;61.70;;;22.02;46.53;94880.59;5056690;28;20231;-39
2023/08/09 01:47:09;;;;;;;0.50;0.50;;;21.70;61.80;;;22.03;46.37;94882.22;5039463;28;20261;-39
2023/08/09 01:49:44;;;;;;;0.40;0.40;;;21.70;61.80;;;22.02;46.40;94881.41;5056874;28;20202;-39
2023/08/09 01:52:11;;;;;;;0.43;0.43;;;21.70;61.80;;;22.02;46.64;94880.59;5055645;28;20289;-39
2023/08/09 01:54:38;;;;;;;0.40;0.40;;;21.70;61.80;;;22.03;46.28;94871.53;5056561;28;20223;-39
2023/08/09 01:57:06;;;;;;;0.40;0.40;;;21.70;61.70;;;22.02;46.47;94872.59;5056664;28;20193;-39
2023/08/09 01:59:34;;;;;;;0.40;0.40;;;21.70;61.80;;;22.01;46.64;94877.13;5039239;28;20598;-39
2023/08/09 02:02:01;;;;;;;0.40;0.40;;;21.70;61.70;;;22.03;46.39;94871.53;5056509;28;20732;-39
2023/08/09 02:04:29;;;;;;;0.40;0.40;;;21.70;61.70;;;22.02;46.19;94869.91;5056368;28;20220;-39
2023/08/09 02:06:56;;;;;;;0.40;0.40;;;21.70;61.80;;;22.03;46.30;94874.19;5055526;28;20294;-39
2023/08/09 02:09:26;;;;;;;0.40;0.40;;;21.70;61.80;;;22.02;46.23;94876.06;5055473;28;20538;-39
2023/08/09 02:11:54;;;;;;;0.40;0.40;;;21.70;61.80;;;22.01;46.67;94871.78;5056368;28;20292;-39
2023/08/09 02:14:21;;;;;;;0.40;0.40;;;21.70;61.80;;;22.02;46.66;94869.91;5056178;28;20196;-39
2023/08/09 02:16:49;;;;;;;0.40;0.40;;;21.70;61.80;;;22.02;46.63;94864.56;5055309;28;20207;-39
2023/08/09 02:19:16;;;;;;;0.40;0.40;;;21.70;61.80;;;22.00;46.43;94864.84;5055301;28;20200;-39
2023/08/09 02:21:43;;;;;;;0.40;0.40;;;21.70;61.70;;;22.01;46.59;94869.13;5055246;28;20627;-39
2023/08/09 02:24:10;;;;;;;0.40;0.40;;;21.70;61.80;;;22.00;46.29;94867.53;5055890;28;20216;-39
2023/08/09 02:26:42;;;;;;;0.40;0.40;;;21.70;61.80;;;22.01;46.40;94863.00;5056086;28;20201;-39
2023/08/09 02:29:09;;;;;;;0.40;0.40;;;21.70;62.70;;;22.01;46.56;94865.66;5056053;28;20183;-39
2023/08/09 02:31:36;;;;;;;0.30;0.30;;;21.70;61.90;;;22.00;46.56;94856.84;5055986;28;20565;-39
2023/08/09 02:34:03;;;;;;;0.40;0.40;;;21.70;61.90;;;21.98;46.67;94864.31;5055822;28;20232;-39
2023/08/09 02:36:30;;;;;;;0.47;0.47;;;21.70;61.90;;;21.98;46.59;94864.31;5071831;28;20232;-39
2023/08/09 02:38:57;;;;;;;0.50;0.50;;;21.70;61.90;;;21.98;46.58;94861.63;5055868;28;20200;-39
2023/08/09 02:41:25;;;;;;;0.40;0.40;;;21.70;61.90;;;21.97;46.91;94854.72;5054823;28;20670;-39
2023/08/09 02:43:52;;;;;;;0.40;0.40;;;21.70;61.90;;;21.98;46.73;94853.63;5055798;28;20224;-39
2023/08/09 02:46:20;;;;;;;0.50;0.50;;;21.70;62.00;;;21.98;46.55;94855.50;5055716;28;20284;-39
2023/08/09 02:48:47;;;;;;;0.50;0.50;;;21.70;61.90;;;21.98;46.73;94852.81;5055926;28;20220;-39
2023/08/09 02:51:14;;;;;;;0.40;0.40;;;21.70;62.00;;;21.99;46.89;94849.88;5054682;28;20196;-39
2023/08/09 02:54:01;;;;;;;0.40;0.40;;;21.70;62.00;;;21.96;46.75;94845.09;5055857;28;20616;-39
2023/08/09 02:56:30;;;;;;;0.40;0.40;;;21.70;62.10;;;21.97;46.67;94840.53;5054570;28;20201;-39
2023/08/09 02:58:58;;;;;;;0.40;0.40;;;21.70;62.00;;;21.96;47.01;94845.09;5054562;28;20204;-39
2023/08/09 03:01:26;;;;;;;0.40;0.40;;;21.70;62.00;;;21.97;46.67;94840.53;5055486;28;20247;-39
2023/08/09 03:03:55;;;;;;;0.50;0.50;;;21.60;62.00;;;21.98;46.76;94834.91;5054236;28;20308;-39
2023/08/09 03:06:23;;;;;;;0.40;0.40;;;21.70;62.00;;;21.97;46.80;94836.00;5055647;28;20204;-39
2023/08/09 03:08:52;;;;;;;0.40;0.40;;;21.70;62.00;;;21.96;46.92;94834.41;5055286;28;20202;-39
2023/08/09 03:11:23;;;;;;;0.40;0.40;;;21.70;62.00;;;21.95;46.60;94827.47;5054346;28;20204;-39
2023/08/09 03:13:51;;;;;;;0.40;0.40;;;21.60;61.80;;;21.96;46.68;94834.41;5054474;28;20506;-39
2023/08/09 03:16:20;;;;;;;0.43;0.43;;;21.60;62.00;;;21.95;46.88;94830.13;5037814;28;20200;-39
2023/08/09 03:18:48;;;;;;;0.40;0.40;;;21.60;61.90;;;21.96;46.80;94834.41;5054255;28;20218;-39
2023/08/09 03:21:16;;;;;;;0.40;0.40;;;21.60;61.90;;;21.96;46.78;94834.41;5054370;28;20693;-39
2023/08/09 03:23:43;;;;;;;0.40;0.40;;;21.60;62.00;;;21.95;46.70;94831.97;5054597;28;20215;-39
2023/08/09 03:26:10;;;;;;;0.40;0.40;;;21.60;62.00;;;21.95;46.67;94827.47;5054124;28;20196;-39
2023/08/09 03:28:38;;;;;;;0.50;0.50;;;21.60;62.00;;;21.96;46.79;94830.91;5054065;28;20245;-39
2023/08/09 03:31:08;;;;;;;0.40;0.40;;;21.60;62.10;;;21.95;46.77;94823.97;5055270;28;20199;-39
2023/08/09 03:33:37;;;;;;;0.50;0.50;;;21.60;62.10;;;21.95;47.05;94823.97;5054889;28;20208;-39
2023/08/09 03:36:06;;;;;;;0.40;0.40;;;21.60;62.10;;;21.95;46.68;94837.31;5055051;28;20257;-39
2023/08/09 03:38:33;;;;;;;0.40;0.40;;;21.60;62.10;;;21.94;47.16;94831.19;5054230;28;20298;-39
2023/08/09 03:41:00;;;;;;;0.40;0.40;;;21.60;62.10;;;21.94;46.97;94838.41;5054874;28;20203;-39
2023/08/09 03:43:29;;;;;;;0.50;0.50;;;21.60;62.10;;;21.94;46.64;94828.53;5037590;28;20224;-39
2023/08/09 03:45:57;;;;;;;0.50;0.50;;;21.60;62.10;;;21.96;47.10;94841.59;5053622;28;20311;-39
2023/08/09 03:48:25;;;;;;;0.50;0.50;;;21.60;62.10;;;21.93;47.07;94837.59;5053876;28;20291;-39
2023/08/09 03:50:53;;;;;;;0.45;0.45;;;21.60;62.10;;;21.93;46.96;94842.94;5053831;28;20214;-39
2023/08/09 03:53:20;;;;;;;0.40;0.40;;;21.60;62.20;;;21.93;47.09;94839.47;5055935;28;20233;-39
2023/08/09 03:55:47;;;;;;;0.40;0.40;;;21.60;62.20;;;21.94;47.12;94841.09;5057819;28;20203;-39
2023/08/09 03:58:14;;;;;;;0.40;0.40;;;21.60;62.20;;;21.91;47.10;94842.41;5057942;28;20233;-39
2023/08/09 04:00:43;;;;;;;0.52;0.52;;;21.60;62.20;;;21.91;46.90;94837.06;5059127;28;20636;-39
2023/08/09 04:03:10;;;;;;;0.40;0.40;;;21.60;62.30;;;21.90;47.36;94836.25;5058797;28;20214;-39
2023/08/09 04:05:38;;;;;;;0.40;0.40;;;21.60;62.30;;;21.90;47.07;94838.16;5058546;28;20223;-39
2023/08/09 04:08:06;;;;;;;0.50;0.50;;;21.60;62.30;;;21.91;47.04;94834.41;5057758;28;20290;-39
2023/08/09 04:10:36;;;;;;;0.40;0.40;;;21.60;62.30;;;21.91;47.06;94848.56;5058665;28;20623;-39
2023/08/09 04:13:03;;;;;;;0.43;0.43;;;21.60;62.20;;;21.91;47.41;94837.06;5058899;28;20238;-39
2023/08/09 04:15:30;;;;;;;0.40;0.40;;;21.60;62.20;;;21.91;47.47;94843.22;5057611;28;20230;-39
2023/08/09 04:17:58;;;;;;;0.50;0.50;;;21.60;62.20;;;21.90;47.07;94838.94;5058727;28;20258;-39
2023/08/09 04:20:26;;;;;;;0.40;0.40;;;21.60;62.20;;;21.90;47.34;94830.13;5058510;28;20188;-39
2023/08/09 04:23:00;;;;;;;0.50;0.50;;;21.60;62.30;;;21.90;47.05;94825.59;5058497;28;20270;-39
2023/08/09 04:25:27;;;;;;;0.40;0.40;;;21.60;62.30;;;21.91;46.95;94835.19;5058234;28;20510;-39
2023/08/09 04:27:56;;;;;;;0.50;0.50;;;21.60;62.20;;;21.89;47.37;94839.19;5058649;28;20255;-39
2023/08/09 04:30:24;;;;;;;0.50;0.50;;;21.60;62.20;;;21.90;47.35;94830.13;5058584;28;20198;-39
2023/08/09 04:32:55;;;;;;;0.40;0.40;;;21.60;62.30;;;21.91;47.47;94831.75;5058496;28;20192;-39
2023/08/09 04:35:23;;;;;;;0.40;0.40;;;21.60;62.30;;;21.90;47.58;94840.81;5058159;28;20265;-39
2023/08/09 04:37:50;;;;;;;0.40;0.40;;;21.60;62.50;;;21.89;47.54;94834.66;5057333;28;20595;-39
2023/08/09 04:40:17;;;;;;;0.40;0.40;;;21.60;62.40;;;21.89;47.43;94840.00;5058065;28;20629;-39
2023/08/09 04:42:46;;;;;;;0.40;0.40;;;21.60;62.50;;;21.90;47.50;94843.47;5058073;28;20640;-39
2023/08/09 04:45:14;;;;;;;0.43;0.43;;;21.60;62.50;;;21.88;47.55;94833.03;5057955;28;20220;-39
2023/08/09 04:47:41;;;;;;;0.40;0.40;;;21.60;62.50;;;21.90;47.21;94832.81;5057986;28;20248;-39
2023/08/09 04:50:09;;;;;;;0.40;0.40;;;21.60;62.50;;;21.90;47.51;94835.47;5057990;28;20231;-39
2023/08/09 04:52:38;;;;;;;0.40;0.40;;;21.60;62.50;;;21.90;47.63;94835.47;5057767;28;20219;-39
2023/08/09 04:55:05;;;;;;;0.40;0.40;;;21.60;62.50;;;21.90;47.51;94835.47;5057702;28;20287;-39
2023/08/09 04:57:32;;;;;;;0.40;0.40;;;21.60;62.50;;;21.91;47.42;94837.88;5058078;28;20211;-39
2023/08/09 05:00:08;;;;;;;0.40;0.40;;;21.60;62.50;;;21.90;47.83;94836.25;5057279;28;20205;-39
2023/08/09 05:02:36;;;;;;;0.30;0.30;;;21.60;62.60;;;21.91;47.74;94842.41;5057761;28;20190;-39
2023/08/09 05:05:06;;;;;;;0.40;0.40;;;21.60;62.50;;;21.91;47.47;94847.75;5056622;28;20225;-39
2023/08/09 05:07:34;;;;;;;0.45;0.45;;;21.70;62.60;;;21.91;47.48;94850.44;5057603;28;20199;-39
2023/08/09 05:10:02;;;;;;;0.50;0.50;;;21.60;62.50;;;21.91;47.62;94851.22;5057551;28;20200;-39
2023/08/09 05:12:30;;;;;;;0.50;0.50;;;21.60;62.60;;;21.91;47.46;94853.09;5057548;28;20204;-39
2023/08/09 05:14:57;;;;;;;0.50;0.50;;;21.60;62.60;;;21.91;47.67;94853.09;5057317;28;20195;-39
2023/08/09 05:17:24;;;;;;;0.40;0.40;;;21.60;62.60;;;21.90;47.50;94854.16;5057695;28;20537;-39
2023/08/09 05:19:52;;;;;;;0.40;0.40;;;21.60;62.60;;;21.91;47.65;94858.44;5056542;28;20206;-39
2023/08/09 05:22:19;;;;;;;0.50;0.50;;;21.60;62.50;;;21.91;47.39;94858.44;5057346;28;20207;-39
2023/08/09 05:24:47;;;;;;;0.50;0.50;;;21.60;62.60;;;21.90;47.33;94856.84;5057351;28;20604;-39
2023/08/09 05:27:14;;;;;;;0.50;0.50;;;21.60;62.60;;;21.90;47.67;94857.63;5057236;28;20212;-39
2023/08/09 05:29:41;;;;;;;0.40;0.40;;;21.60;62.60;;;21.90;47.16;94854.16;5057370;28;20207;-39
2023/08/09 05:32:08;;;;;;;0.50;0.50;;;21.60;62.60;;;21.90;47.75;94843.47;5057477;28;20620;-39
2023/08/09 05:34:35;;;;;;;0.40;0.40;;;21.60;62.70;;;21.91;48.02;94853.09;5057124;28;20193;-39
2023/08/09 05:37:03;;;;;;;0.40;0.40;;;21.60;62.70;;;21.91;47.90;94858.44;5057624;28;20286;-39
2023/08/09 05:39:31;;;;;;;0.40;0.40;;;21.60;62.60;;;21.89;47.89;94857.91;5055897;28;20214;-39
2023/08/09 05:41:58;;;;;;;0.40;0.40;;;21.60;62.70;;;21.89;47.68;94853.34;5057280;28;20212;-39
2023/08/09 05:44:26;;;;;;;0.50;0.50;;;21.60;62.70;;;21.89;47.51;94850.69;5055889;28;20546;-39
2023/08/09 05:46:53;;;;;;;0.40;0.40;;;21.60;62.70;;;21.88;47.91;94849.06;5056049;28;20279;-39
2023/08/09 05:49:21;;;;;;;0.43;0.43;;;21.60;62.80;;;21.90;47.82;94865.63;5056735;28;20209;-39
2023/08/09 05:51:48;;;;;;;0.40;0.40;;;21.60;62.80;;;21.91;47.97;94858.44;5055818;28;20232;-39
2023/08/09 05:54:15;;;;;;;0.40;0.40;;;21.60;62.80;;;21.91;47.67;94853.88;5056491;28;20589;-39
2023/08/09 05:56:42;;;;;;;0.40;0.40;;;21.60;62.80;;;21.88;48.04;94850.94;5056713;28;20198;-39
2023/08/09 05:59:10;;;;;;;0.50;0.50;;;21.60;62.90;;;21.91;48.15;94856.56;5056489;28;20224;-39
2023/08/09 06:01:37;;;;;;;0.50;0.50;;;21.60;62.90;;;21.92;48.32;94857.34;5072244;28;20210;-39
2023/08/09 06:04:05;;;;;;;0.47;0.47;;;21.60;63.00;;;21.91;48.10;94856.56;5056985;28;20625;-39
2023/08/09 06:06:32;;;;;;;0.40;0.40;;;21.60;63.00;;;21.91;48.32;94855.78;5055599;28;20221;-39
2023/08/09 06:08:59;;;;;;;0.40;0.40;;;21.70;63.10;;;21.91;48.04;94853.88;5056283;28;20639;-39
2023/08/09 06:11:44;;;;;;;0.50;0.50;;;21.60;63.00;;;21.91;48.10;94855.78;5056948;28;20172;-39
2023/08/09 06:14:12;;;;;;;0.40;0.40;;;21.60;63.00;;;21.92;48.03;94854.69;5056878;28;20201;-41
2023/08/09 06:16:39;;;;;;;0.50;0.50;;;21.60;63.00;;;21.87;47.99;94850.16;5038747;28;20216;-39
2023/08/09 06:19:08;;;;;;;0.40;0.40;;;21.60;63.10;;;21.93;48.38;94853.63;5056231;28;20192;-37
2023/08/09 06:21:35;;;;;;;0.50;0.50;;;21.70;63.10;;;21.93;48.30;94850.16;5056811;28;20284;-36
2023/08/09 06:24:04;;;;;;;0.40;0.40;;;21.70;63.20;;;21.93;48.19;94850.94;5055433;28;20209;-36
2023/08/09 06:26:33;;;;;;;0.45;0.45;;;21.70;63.10;;;21.90;48.28;94848.81;5056147;28;20667;-36
2023/08/09 06:29:03;;;;;;;0.40;0.40;;;21.70;63.10;;;21.93;48.05;94850.94;5056292;28;20202;-36
2023/08/09 06:31:31;;;;;;;0.43;0.43;;;21.70;63.10;;;21.93;48.04;94856.28;5055182;28;20205;-36
2023/08/09 06:33:59;;;;;;;0.40;0.40;;;21.70;63.10;;;21.92;47.96;94860.03;5056426;28;20214;-36
2023/08/09 06:36:26;;;;;;;0.40;0.40;;;21.70;63.00;;;21.94;48.22;94867.78;5056013;28;20638;-36
2023/08/09 06:38:53;;;;;;;0.50;0.50;;;21.60;63.00;;;21.94;48.31;94867.78;5055985;28;20270;-36
2023/08/09 06:41:20;;;;;;;0.40;0.40;;;21.60;63.00;;;21.93;48.21;94872.31;5055950;28;20208;-36
2023/08/09 06:43:47;;;;;;;0.40;0.40;;;21.60;63.00;;;21.94;48.40;94875.81;5055141;28;20266;-36
2023/08/09 06:46:14;;;;;;;0.40;0.40;;;21.60;63.00;;;21.94;48.19;94881.13;5054903;28;20236;-36
2023/08/09 06:48:42;;;;;;;0.40;0.40;;;21.70;63.10;;;21.94;48.14;94878.47;5056012;28;20192;-36
2023/08/09 06:51:10;;;;;;;0.40;0.40;;;21.60;63.00;;;21.94;48.23;94879.25;5054990;28;20566;-36
2023/08/09 06:53:37;;;;;;;0.40;0.40;;;21.70;63.10;;;21.93;48.04;94877.66;5055680;28;20239;-36
2023/08/09 06:56:05;;;;;;;0.40;0.40;;;21.60;63.10;;;21.94;48.19;94875.81;5071371;28;20197;-36
2023/08/09 06:58:32;;;;;;;0.40;0.40;;;21.70;63.20;;;21.94;48.40;94883.81;5071241;28;20304;-36
2023/08/09 07:01:02;;;;;;;0.40;0.40;;;21.60;63.10;;;21.94;48.19;94878.47;5055568;28;20204;-39
2023/08/09 07:03:29;;;;;;;0.40;0.40;;;21.60;63.20;;;21.94;48.28;94887.28;5055765;28;20190;-39
2023/08/09 07:05:56;;;;;;;0.47;0.47;;;21.70;63.20;;;21.95;48.33;94880.06;5055331;28;20319;-39
2023/08/09 07:08:24;;;;;;;0.40;0.40;;;21.60;63.20;;;21.96;48.35;94879.00;5038491;28;20636;-39
2023/08/09 07:10:51;;;;;;;0.40;0.40;;;21.60;63.30;;;21.96;48.33;94879.00;5055330;28;20195;-39
2023/08/09 07:13:19;;;;;;;0.47;0.47;;;21.70;63.40;;;21.96;48.52;94881.66;5038156;28;20201;-39
2023/08/09 07:15:46;;;;;;;0.40;0.40;;;21.70;63.40;;;21.95;48.39;94880.88;5055232;28;20202;-39
2023/08/09 07:18:14;;;;;;;0.40;0.40;;;21.70;63.50;;;21.96;48.35;94885.16;5055322;28;20202;-39
2023/08/09 07:20:41;;;;;;;0.40;0.40;;;21.70;63.50;;;21.97;48.46;94894.78;5054164;28;20227;-39
2023/08/09 07:23:08;;;;;;;0.50;0.50;;;21.70;63.50;;;21.96;48.59;94887.00;5054318;28;20199;-39
2023/08/09 07:25:35;;;;;;;0.40;0.40;;;21.70;63.50;;;21.96;48.72;94885.16;5054940;28;20615;-39
2023/08/09 07:28:02;;;;;;;0.40;0.40;;;21.70;63.50;;;21.98;48.69;94885.66;5054476;28;20189;-39
2023/08/09 07:30:30;;;;;;;0.40;0.40;;;21.70;63.50;;;21.97;48.84;94892.09;5054847;28;20215;-39
2023/08/09 07:32:57;;;;;;;0.50;0.50;;;21.70;63.50;;;21.98;48.50;94885.66;5055255;28;20286;-39
2023/08/09 07:35:24;;;;;;;0.40;0.40;;;21.70;63.50;;;21.98;48.88;94885.66;5055220;28;20195;-39
2023/08/09 07:37:51;;;;;;;0.50;0.50;;;21.70;63.50;;;22.00;48.81;94890.75;5054954;28;20283;-39
2023/08/09 07:40:20;;;;;;;0.40;0.40;;;21.70;63.60;;;22.00;48.54;94886.22;5054779;28;20207;-39
2023/08/09 07:42:47;;;;;;;0.50;0.50;;;21.70;63.60;;;22.00;48.45;94872.84;5054003;28;20229;-39
2023/08/09 07:45:14;;;;;;;0.43;0.43;;;21.70;63.60;;;22.01;48.91;94885.16;5053830;28;20318;-39
2023/08/09 07:47:43;;;;;;;0.40;0.40;;;21.70;63.60;;;22.02;48.82;94886.75;5054474;28;20223;-39
2023/08/09 07:50:11;;;;;;;0.40;0.40;;;21.70;63.60;;;22.02;48.90;94886.75;5054619;28;20208;-39
2023/08/09 07:52:38;;;;;;;0.40;0.40;;;21.70;63.60;;;22.01;48.76;94893.16;5037427;28;20233;-39
2023/08/09 07:55:06;;;;;;;0.43;0.43;;;21.70;63.60;;;22.01;48.97;94895.03;5055028;28;20202;-39
2023/08/09 07:57:33;;;;;;;0.40;0.40;;;21.70;63.60;;;22.01;48.56;94889.69;5054748;28;20196;-39
2023/08/09 08:00:24;;;;;;;0.45;0.45;;;21.70;63.70;;;22.02;48.56;94896.63;5054702;28;20200;-39
2023/08/09 08:03:01;;;;;;;0.40;0.40;;;21.70;63.70;;;22.01;48.88;94892.38;5055015;28;20247;-39
2023/08/09 08:05:28;;;;;;;0.40;0.40;;;21.70;63.60;;;22.01;48.90;94898.50;5054583;28;20215;-39
2023/08/09 08:07:55;;;;;;;0.40;0.40;;;21.70;63.60;;;22.02;48.62;94899.28;5054659;28;20207;-39
2023/08/09 08:10:23;;;;;;;0.40;0.40;;;21.70;63.60;;;22.03;48.68;94899.06;5054509;28;20201;-39
2023/08/09 08:12:50;;;;;;;0.50;0.50;;;21.70;63.60;;;22.03;48.77;94896.38;5054628;28;20296;-39
2023/08/09 08:15:18;;;;;;;0.40;0.40;;;21.70;63.60;;;22.05;48.74;94893.44;5054576;28;20275;-39
2023/08/09 08:17:46;;;;;;;0.40;0.40;;;21.70;63.70;;;22.04;49.09;94900.63;5055081;28;20261;-39
2023/08/09 08:20:17;;;;;;;0.47;0.47;;;21.70;63.70;;;22.05;48.72;94902.25;5054375;28;20192;-39
2023/08/09 08:22:47;;;;;;;0.43;0.43;;;21.70;63.70;;;22.06;48.59;94909.19;5054535;28;20181;-39
2023/08/09 08:25:16;;;;;;;0.40;0.40;;;21.70;63.60;;;22.06;48.67;94905.72;5054415;28;20688;-39
2023/08/09 08:27:45;;;;;;;0.50;0.50;;;21.80;63.70;;;22.06;48.62;94908.41;5054644;28;20211;-39
2023/08/09 08:30:18;;;;;;;0.50;0.50;;;21.80;63.70;;;22.06;48.71;94911.84;5054465;28;20572;-39
2023/08/09 08:32:47;;;;;;;0.40;0.40;;;21.80;63.80;;;22.06;48.78;94911.84;5054754;28;20498;-39
2023/08/09 08:35:20;;;;;;;0.40;0.40;;;21.80;63.80;;;22.06;48.49;94913.75;5037139;28;20501;-39
2023/08/09 08:37:48;;;;;;;0.40;0.40;;;21.80;63.70;;;22.06;49.05;94911.06;5054416;28;20193;-39
2023/08/09 08:40:21;;;;;;;0.40;0.40;;;21.70;64.60;;;22.06;48.81;94911.06;5057946;28;20262;-39
2023/08/09 08:42:50;;;;;;;0.40;0.40;;;21.70;63.60;;;22.06;49.00;94917.19;5058173;28;20207;-39
2023/08/09 08:45:19;;;;;;;0.40;0.40;;;21.80;63.80;;;22.07;48.92;94920.69;5059063;28;20559;-39
2023/08/09 08:47:47;;;;;;;0.40;0.40;;;21.80;63.70;;;22.07;48.99;94916.13;5058280;28;20569;-39
2023/08/09 08:50:17;;;;;;;0.45;0.45;;;21.70;63.70;;;22.09;48.95;94912.41;5057845;28;20200;-39
2023/08/09 08:52:48;;;;;;;0.40;0.40;;;21.80;63.70;;;22.08;48.76;94906.25;5057897;28;20578;-36
2023/08/09 08:55:16;;;;;;;0.40;0.40;;;21.80;63.80;;;22.09;49.07;94904.41;5040531;28;20221;-39
2023/08/09 08:57:46;;;;;;;0.50;0.50;;;21.80;63.90;;;22.10;48.95;94909.47;5058363;28;20222;-39
2023/08/09 09:00:16;;;;;;;0.40;0.40;;;21.80;64.00;;;22.12;49.24;94911.88;5057675;28;20259;-39
2023/08/09 09:02:56;;;;;;;0.50;0.50;;;21.80;64.00;;;22.13;49.21;94916.13;5058057;28;20179;-39
2023/08/09 09:05:23;;;;;;;0.40;0.40;;;21.80;64.00;;;22.14;49.05;94904.41;5057620;28;20532;-39
2023/08/09 09:07:52;;;;;;;0.40;0.40;;;21.80;64.00;;;22.14;48.97;94899.88;5057905;28;20231;-39
2023/08/09 09:10:20;;;;;;;0.40;0.40;;;21.80;63.90;;;22.15;49.39;94896.09;5056911;28;20278;-39
2023/08/09 09:12:55;;;;;;;0.40;0.40;;;21.80;63.90;;;22.13;49.26;94903.59;5056950;28;20268;-39
2023/08/09 09:15:26;;;;;;;0.30;0.30;;;21.80;63.90;;;22.14;49.24;94899.88;5057522;28;20169;-39
2023/08/09 09:17:54;;;;;;;0.30;0.30;;;21.80;63.90;;;22.15;49.29;94912.13;5057788;28;20176;-39
2023/08/09 09:20:33;;;;;;;0.40;0.40;;;21.90;64.00;;;22.16;49.33;94915.63;5057196;28;20223;-39
2023/08/09 09:23:01;;;;;;;0.40;0.40;;;21.80;63.90;;;22.15;49.31;94916.69;5057964;28;20251;-39
2023/08/09 09:25:28;;;;;;;0.40;0.40;;;21.90;64.00;;;22.16;48.98;94916.41;5057564;28;20245;-39
2023/08/09 09:27:58;;;;;;;0.40;0.40;;;21.90;64.00;;;22.16;49.11;94919.09;5057483;28;20224;-39
2023/08/09 09:30:31;;;;;;;0.40;0.40;;;21.90;63.90;;;22.16;49.16;94924.44;5057054;28;20665;-39
2023/08/09 09:33:02;;;;;;;0.40;0.40;;;21.90;64.00;;;22.16;49.38;94924.44;5057483;28;20604;-39
2023/08/09 09:35:32;;;;;;;0.40;0.40;;;21.90;64.00;;;22.17;49.21;94918.03;5057318;28;20497;-39
2023/08/09 09:38:02;;;;;;;0.40;0.40;;;21.90;64.10;;;22.19;49.32;94928.44;5058490;28;20492;-39
2023/08/09 09:40:34;;;;;;;0.40;0.40;;;21.90;64.00;;;22.19;49.23;94923.91;5056807;28;20183;-39
2023/08/09 09:43:04;;;;;;;0.40;0.40;;;21.90;64.00;;;22.20;49.60;94916.69;5057034;28;20189;-39
2023/08/09 09:45:32;;;;;;;0.40;0.40;;;21.90;64.00;;;22.20;49.24;94916.69;5056854;28;20281;-39
2023/08/09 09:48:04;;;;;;;0.40;0.40;;;21.90;64.10;;;22.21;49.22;94912.97;5056298;28;20198;-39
2023/08/09 09:50:31;;;;;;;0.40;0.40;;;21.90;64.00;;;22.21;49.42;94905.72;5055233;28;20236;-39
2023/08/09 09:53:00;;;;;;;0.40;0.40;;;21.90;64.00;;;22.22;49.58;94903.88;5055764;28;20241;-39
2023/08/09 09:55:28;;;;;;;0.40;0.40;;;21.90;65.20;;;22.22;49.25;94904.66;5055838;28;20639;-39
2023/08/09 09:57:58;;;;;;;0.40;0.40;;;22.00;64.10;;;22.23;49.09;94906.28;5057000;28;20219;-39
2023/08/09 10:00:27;;;;;;;0.50;0.50;;;21.90;64.10;;;22.25;49.53;94899.88;5056518;28;20528;-39
2023/08/09 10:03:01;;;;;;;0.40;0.40;;;21.90;64.10;;;22.23;49.19;94897.47;5056646;28;20192;-39
2023/08/09 10:05:35;;;;;;;0.40;0.40;;;21.90;64.10;;;22.24;49.22;94907.09;5056588;28;20212;-39
2023/08/09 10:08:07;;;;;;;0.40;0.40;;;21.90;64.10;;;22.23;49.15;94903.59;5056889;28;20204;-39
2023/08/09 10:10:43;;;;;;;0.50;0.50;;;21.90;64.20;;;22.24;49.37;94901.75;5056650;28;20540;-39
2023/08/09 10:13:17;;;;;;;0.40;0.40;;;22.00;65.10;;;22.25;49.26;94903.34;5056728;28;20204;-39
2023/08/09 10:15:49;;;;;;;0.40;0.40;;;22.00;64.20;;;22.27;49.33;94898.53;5056931;28;20186;-39
2023/08/09 10:18:33;;;;;;;0.40;0.40;;;21.90;64.10;;;22.26;49.48;94896.94;5055533;28;20189;-39
2023/08/09 10:21:03;;;;;;;0.40;0.40;;;22.00;64.30;;;22.28;49.48;94888.66;5055558;28;20573;-39
2023/08/09 10:23:30;;;;;;;0.43;0.43;;;22.00;64.20;;;22.29;49.52;94892.91;5056215;28;20599;-39
2023/08/09 10:25:58;;;;;;;0.40;0.40;;;22.00;64.20;;;22.31;49.23;94901.47;5056349;28;20271;-39
2023/08/09 10:28:42;;;;;;;0.40;0.40;;;22.00;64.30;;;22.29;49.23;94899.06;5056148;28;20201;-39